Time;durP1;ratioP1;P1;durP2;ratioP2;P2;SDS_P1;SDS_P2;PMS_P1;PMS_P2;Temp;Humidity;BMP_temperature;BMP_pressure;BME280_temperature;BME280_humidity;BME280_pressure;Samples;Min_cycle;Max_cycle;Signal;HPM_P1;HPM_P2
2022/07/09 00:01:23;;;;;;;1.88;1.38;;;;;;;38.58;18.22;101051.75;5033310;28;20029;-76
2022/07/09 00:03:48;;;;;;;2.15;1.50;;;;;;;38.80;18.46;101041.00;5037257;28;20026;-76
2022/07/09 00:06:13;;;;;;;1.88;1.70;;;;;;;38.86;18.06;101040.53;5036963;28;20051;-77
2022/07/09 00:08:39;;;;;;;3.22;1.77;;;;;;;38.83;18.35;101047.84;5036676;28;20029;-76
2022/07/09 00:11:04;;;;;;;3.70;1.85;;;;;;;38.85;18.62;101044.97;5050706;28;20028;-76
2022/07/09 00:13:30;;;;;;;1.95;1.38;;;;;;;38.66;18.69;101049.19;5034808;28;20029;-76
2022/07/09 00:15:55;;;;;;;5.93;2.00;;;;;;;38.70;18.14;101054.56;5034964;28;20108;-76
2022/07/09 00:18:20;;;;;;;3.65;1.92;;;;;;;38.66;18.36;101048.41;5034861;28;20017;-76
2022/07/09 00:20:46;;;;;;;4.13;2.10;;;;;;;38.66;18.47;101049.19;5035431;28;20034;-76
2022/07/09 00:23:11;;;;;;;4.28;2.05;;;;;;;38.73;18.51;101050.28;5035580;28;20513;-76
2022/07/09 00:25:37;;;;;;;6.10;1.98;;;;;;;38.64;18.46;101048.28;5038201;28;20030;-76
2022/07/09 00:28:02;;;;;;;4.47;1.70;;;;;;;38.55;18.55;101049.28;5052360;28;20116;-76
2022/07/09 00:30:28;;;;;;;4.32;2.00;;;;;;;38.50;18.72;101050.50;5038001;28;20109;-76
2022/07/09 00:32:53;;;;;;;4.57;1.85;;;;;;;38.39;18.47;101061.84;5037581;28;20026;-76
2022/07/09 00:35:19;;;;;;;4.13;1.80;;;;;;;38.27;18.78;101046.28;5057300;28;20093;-76
2022/07/09 00:37:44;;;;;;;3.35;1.83;;;;;;;38.16;18.54;101029.28;5042145;28;20136;-76
2022/07/09 00:40:10;;;;;;;5.53;2.08;;;;;;;38.15;19.04;101047.81;5043882;28;20025;-76
2022/07/09 00:42:35;;;;;;;4.10;1.52;;;;;;;38.43;18.54;101046.41;5044523;28;20044;-75
2022/07/09 00:45:01;;;;;;;5.00;1.58;;;;;;;38.54;18.87;101042.56;5041496;28;20085;-76
2022/07/09 00:47:26;;;;;;;3.10;1.58;;;;;;;38.54;18.30;101044.75;5054396;28;20032;-76
2022/07/09 00:49:53;;;;;;;4.03;2.03;;;;;;;38.51;18.27;101046.09;5038757;28;20033;-76
2022/07/09 00:52:19;;;;;;;2.85;1.70;;;;;;;38.34;18.73;101024.31;5036940;28;20167;-76
2022/07/09 00:54:45;;;;;;;5.22;1.80;;;;;;;38.36;18.85;101035.59;5038667;28;20112;-76
2022/07/09 00:57:11;;;;;;;3.63;1.80;;;;;;;38.56;18.72;101035.94;5040732;28;20041;-76
2022/07/09 00:59:39;;;;;;;6.55;1.70;;;;;;;38.48;18.52;101033.31;5041030;28;20442;-76
2022/07/09 01:02:07;;;;;;;5.38;1.90;;;;;;;38.51;18.25;101037.16;5048024;28;20072;-76
2022/07/09 01:04:33;;;;;;;4.07;1.52;;;;;;;38.51;18.64;101034.19;5044472;28;20076;-76
2022/07/09 01:06:58;;;;;;;3.08;1.55;;;;;;;38.49;18.45;101019.94;5040602;28;20041;-76
2022/07/09 01:09:25;;;;;;;4.03;1.98;;;;;;;38.34;19.03;101026.53;5039370;28;20376;-76
2022/07/09 01:11:51;;;;;;;3.50;1.73;;;;;;;38.28;18.57;101024.03;5039378;28;20034;-75
2022/07/09 01:14:17;;;;;;;4.43;1.70;;;;;;;38.32;19.14;101015.31;5040614;28;20039;-76
2022/07/09 01:16:42;;;;;;;3.45;1.52;;;;;;;38.27;19.05;101034.38;5040171;28;20033;-75
2022/07/09 01:19:08;;;;;;;3.22;1.70;;;;;;;38.29;18.91;101012.84;5039865;28;20367;-76
2022/07/09 01:21:34;;;;;;;4.50;1.98;;;;;;;38.18;18.65;100983.97;5039695;28;20022;-76
2022/07/09 01:24:00;;;;;;;3.90;1.80;;;;;;;38.31;19.07;101016.72;5037213;28;20028;-75
2022/07/09 01:26:25;;;;;;;4.75;1.73;;;;;;;38.14;19.18;101010.56;5037167;28;20021;-75
2022/07/09 01:28:51;;;;;;;4.80;1.80;;;;;;;37.96;18.94;101002.13;5038835;28;20021;-76
2022/07/09 01:31:16;;;;;;;2.17;1.58;;;;;;;37.86;19.21;101006.72;5055966;28;20036;-76
2022/07/09 01:33:42;;;;;;;4.68;1.98;;;;;;;37.76;19.55;101009.13;5039593;28;20087;-76
2022/07/09 01:36:08;;;;;;;4.22;1.80;;;;;;;37.60;20.00;101015.69;5039864;28;20022;-76
2022/07/09 01:38:33;;;;;;;5.28;2.85;;;;;;;37.48;19.82;101026.09;5039062;28;20096;-76
2022/07/09 01:40:59;;;;;;;4.43;2.15;;;;;;;37.52;19.84;101009.25;5035991;28;20053;-76
2022/07/09 01:43:25;;;;;;;5.05;1.80;;;;;;;37.38;20.02;101013.63;5051528;28;20120;-76
2022/07/09 01:45:50;;;;;;;2.92;1.67;;;;;;;37.62;19.49;101009.09;5036920;28;20036;-76
2022/07/09 01:48:16;;;;;;;6.40;1.85;;;;;;;37.60;19.96;101003.03;5051606;28;20459;-76
2022/07/09 01:50:41;;;;;;;4.05;2.63;;;;;;;37.60;19.69;101000.81;5036373;28;20437;-76
2022/07/09 01:53:07;;;;;;;3.35;2.00;;;;;;;37.79;19.64;100999.69;5036640;28;20022;-76
2022/07/09 01:55:32;;;;;;;3.90;1.92;;;;;;;37.64;20.07;100997.34;5034692;28;20033;-76
2022/07/09 01:57:58;;;;;;;4.32;2.33;;;;;;;37.66;20.08;100999.63;5035319;28;20112;-76
2022/07/09 02:00:24;;;;;;;2.35;1.90;;;;;;;37.78;19.68;100998.13;5035418;28;20026;-76
2022/07/09 02:02:49;;;;;;;4.13;2.25;;;;;;;37.95;19.53;100981.94;5035527;28;20068;-76
2022/07/09 02:05:15;;;;;;;5.18;2.30;;;;;;;38.12;19.24;100990.38;5049427;28;20029;-76
2022/07/09 02:07:40;;;;;;;3.25;2.05;;;;;;;38.08;19.31;100986.41;5049527;28;20036;-76
2022/07/09 02:10:06;;;;;;;5.57;2.03;;;;;;;37.98;19.81;100980.63;5035954;28;20025;-76
2022/07/09 02:12:31;;;;;;;2.88;2.10;;;;;;;38.01;19.52;100991.25;5039428;28;20041;-76
2022/07/09 02:14:57;;;;;;;1.83;1.48;;;;;;;38.25;19.25;100979.88;5040755;28;20382;-76
2022/07/09 02:17:23;;;;;;;3.10;2.15;;;;;;;38.23;19.22;100980.56;5040294;28;20390;-76
2022/07/09 02:19:48;;;;;;;4.10;2.20;;;;;;;38.32;18.96;100970.63;5041873;28;20089;-76
2022/07/09 02:22:13;;;;;;;3.78;2.08;;;;;;;38.16;19.72;100972.72;5041953;28;20104;-77
2022/07/09 02:24:39;;;;;;;2.92;1.88;;;;;;;38.21;19.54;100953.66;5044556;28;20211;-76
2022/07/09 02:27:05;;;;;;;5.97;2.10;;;;;;;38.36;19.28;100970.84;5063256;28;20040;-76
2022/07/09 02:29:30;;;;;;;5.13;1.88;;;;;;;38.28;19.65;100961.50;5044927;28;20029;-76
2022/07/09 02:31:57;;;;;;;3.78;1.58;;;;;;;38.24;19.43;100973.16;5046544;28;20061;-76
2022/07/09 02:34:22;;;;;;;5.25;2.17;;;;;;;38.17;19.33;100965.34;5046069;28;20462;-76
2022/07/09 02:36:48;;;;;;;4.80;1.85;;;;;;;38.18;19.74;100949.03;5044810;28;20052;-76
2022/07/09 02:39:13;;;;;;;3.78;1.80;;;;;;;38.28;19.66;100958.50;5040474;28;20051;-76
2022/07/09 02:41:38;;;;;;;3.58;1.48;;;;;;;38.33;19.61;100956.53;5035549;28;20459;-74
2022/07/09 02:44:04;;;;;;;3.15;2.35;;;;;;;38.37;19.22;100957.50;5034749;28;20136;-74
2022/07/09 02:46:29;;;;;;;3.45;1.90;;;;;;;38.28;19.68;100949.56;5033546;28;20119;-74
2022/07/09 02:48:55;;;;;;;1.92;1.70;;;;;;;38.24;19.51;100952.31;5043252;28;20029;-77
2022/07/09 02:51:20;;;;;;;4.10;1.83;;;;;;;38.25;19.41;100950.88;5045938;28;20030;-76
2022/07/09 02:53:46;;;;;;;2.22;1.67;;;;;;;38.23;19.84;100959.72;5048099;28;20021;-77
2022/07/09 02:56:11;;;;;;;4.15;2.00;;;;;;;38.24;19.87;100963.47;5048918;28;20034;-76
2022/07/09 02:58:39;;;;;;;5.28;2.55;;;;;;;38.18;19.63;100963.16;5048122;28;20025;-76
2022/07/09 03:01:07;;;;;;;2.72;1.90;;;;;;;37.60;19.98;100923.50;5047341;28;20371;-76
2022/07/09 03:03:36;;;;;;;2.55;1.83;;;;;;;37.88;19.80;100960.00;5049291;28;20061;-76
2022/07/09 03:06:03;;;;;;;2.28;1.48;;;;;;;37.93;20.20;100964.75;5049145;28;20036;-76
2022/07/09 03:08:36;;;;;;;5.60;2.17;;;;;;;38.03;19.63;100959.41;5048080;28;20052;-77
2022/07/09 03:11:03;;;;;;;5.00;2.35;;;;;;;37.87;19.93;100964.41;5045698;28;20029;-76
2022/07/09 03:13:36;;;;;;;6.07;2.20;;;;;;;38.09;20.03;100961.91;5044520;28;20026;-76
2022/07/09 03:16:02;;;;;;;5.70;1.90;;;;;;;37.95;20.02;100952.94;5046035;28;20032;-77
2022/07/09 03:18:27;;;;;;;2.55;1.70;;;;;;;37.98;19.94;100939.75;5044726;28;20029;-76
2022/07/09 03:20:55;;;;;;;2.20;1.85;;;;;;;38.01;19.87;100941.41;5062608;28;20021;-77
2022/07/09 03:23:21;;;;;;;5.25;2.10;;;;;;;38.25;19.55;100944.16;5041680;28;20470;-76
2022/07/09 03:25:48;;;;;;;3.25;1.73;;;;;;;38.09;19.84;100934.38;5039496;28;20116;-76
2022/07/09 03:28:14;;;;;;;4.72;2.00;;;;;;;37.99;19.61;100931.63;5052465;28;20064;-77
2022/07/09 03:30:40;;;;;;;1.95;1.60;;;;;;;38.20;19.81;100936.44;5034864;28;20079;-75
2022/07/09 03:33:06;;;;;;;2.65;1.90;;;;;;;38.13;19.71;100928.63;5033867;28;20060;-76
2022/07/09 03:35:32;;;;;;;8.20;3.58;;;;;;;38.16;19.81;100925.09;5049996;28;20443;-76
2022/07/09 03:37:59;;;;;;;3.42;2.05;;;;;;;37.95;19.47;100904.56;5036136;28;20372;-76
2022/07/09 03:40:26;;;;;;;2.95;1.67;;;;;;;38.09;19.74;100922.47;5055928;28;20467;-76
2022/07/09 03:42:52;;;;;;;2.35;1.70;;;;;;;38.18;19.51;100933.38;5040224;28;20104;-76
2022/07/09 03:45:20;;;;;;;7.65;2.22;;;;;;;38.14;19.59;100915.31;5041207;28;20036;-77
2022/07/09 03:47:50;;;;;;;4.10;1.90;;;;;;;38.20;19.64;100916.38;5058709;28;20084;-77
2022/07/09 03:50:15;;;;;;;3.38;2.00;;;;;;;38.43;19.80;100933.22;5054389;28;20446;-76
2022/07/09 03:52:42;;;;;;;3.45;2.08;;;;;;;37.84;20.19;100926.28;5036240;28;20030;-77
2022/07/09 03:55:08;;;;;;;3.95;2.22;;;;;;;37.86;20.02;100930.13;5037520;28;20048;-76
2022/07/09 03:57:34;;;;;;;3.95;2.10;;;;;;;38.22;19.67;100937.34;5037262;28;20030;-75
2022/07/09 03:59:59;;;;;;;3.97;2.30;;;;;;;38.19;19.92;100931.94;5041682;28;20029;-76
2022/07/09 04:02:27;;;;;;;3.05;2.13;;;;;;;38.31;19.85;100920.66;5041551;28;20037;-77
2022/07/09 04:04:56;;;;;;;4.53;2.22;;;;;;;38.43;19.21;100934.00;5039787;28;20021;-77
2022/07/09 04:07:26;;;;;;;4.22;1.80;;;;;;;38.39;19.65;100933.78;5038075;28;20097;-76
2022/07/09 04:09:53;;;;;;;3.63;2.00;;;;;;;38.49;19.63;100926.81;5020040;28;20038;-77
2022/07/09 04:12:20;;;;;;;3.50;2.13;;;;;;;38.51;19.54;100935.88;5039260;28;20029;-76
2022/07/09 04:14:45;;;;;;;2.40;1.80;;;;;;;38.61;19.22;100930.47;5023643;28;20095;-76
2022/07/09 04:17:12;;;;;;;2.28;1.80;;;;;;;38.53;19.54;100924.88;5041502;28;20033;-77
2022/07/09 04:19:37;;;;;;;9.45;2.20;;;;;;;38.52;19.49;100929.28;5052813;28;20462;-79
2022/07/09 04:22:03;;;;;;;2.20;2.00;;;;;;;38.67;19.26;100927.81;5032179;28;20167;-79
2022/07/09 04:24:29;;;;;;;7.93;2.42;;;;;;;38.38;19.43;100935.22;5033121;28;20036;-78
2022/07/09 04:26:54;;;;;;;7.05;2.00;;;;;;;38.19;20.00;100931.94;5015629;28;20036;-79
2022/07/09 04:29:21;;;;;;;4.22;2.22;;;;;;;38.38;19.92;100914.38;5033430;28;20112;-78
2022/07/09 04:31:47;;;;;;;5.70;2.00;;;;;;;38.69;19.37;100922.69;5033404;28;20033;-78
2022/07/09 04:34:15;;;;;;;3.22;2.05;;;;;;;38.99;18.90;100929.47;5032880;28;20042;-80
2022/07/09 04:36:42;;;;;;;4.82;2.05;;;;;;;39.16;19.32;100913.94;5036817;28;20053;-79
2022/07/09 04:39:10;;;;;;;3.90;1.67;;;;;;;39.49;18.60;100903.59;5036434;28;20032;-79
2022/07/09 04:41:36;;;;;;;2.60;2.00;;;;;;;39.24;18.76;100914.34;5037202;28;20420;-79
2022/07/09 04:44:15;;;;;;;3.53;1.70;;;;;;;39.73;18.61;100914.47;5035726;28;20034;-78
2022/07/09 04:46:43;;;;;;;2.55;1.80;;;;;;;39.87;17.91;100920.38;5051783;28;20128;-79
2022/07/09 04:49:10;;;;;;;3.10;1.48;;;;;;;39.93;18.39;100926.63;5052250;28;20474;-78
2022/07/09 04:51:37;;;;;;;2.03;1.83;;;;;;;40.44;17.76;100905.81;5035574;28;20116;-77
2022/07/09 04:54:03;;;;;;;4.45;2.00;;;;;;;40.70;17.52;100900.25;5035706;28;20033;-78
2022/07/09 04:56:30;;;;;;;3.83;1.95;;;;;;;40.80;17.51;100917.84;5036883;28;20021;-78
2022/07/09 04:58:56;;;;;;;8.10;2.33;;;;;;;41.00;17.35;100918.72;5035833;28;20394;-78
2022/07/09 05:01:22;;;;;;;2.78;1.90;;;;;;;40.98;17.14;100919.38;5035565;28;20025;-78
2022/07/09 05:03:49;;;;;;;4.32;1.65;;;;;;;41.00;17.23;100920.94;5035414;28;20034;-78
2022/07/09 05:06:18;;;;;;;2.58;1.90;;;;;;;40.55;17.83;100916.78;5035139;28;20112;-79
2022/07/09 05:08:47;;;;;;;4.47;2.10;;;;;;;40.92;17.37;100906.41;5036280;28;20108;-78
2022/07/09 05:11:13;;;;;;;2.90;1.58;;;;;;;40.73;17.27;100919.03;5023261;28;20056;-78
2022/07/09 05:13:43;;;;;;;2.75;1.77;;;;;;;41.00;17.13;100908.97;5042302;28;20800;-79
2022/07/09 05:16:08;;;;;;;1.67;1.52;;;;;;;41.07;16.95;100920.50;5036231;28;20113;-78
2022/07/09 05:18:35;;;;;;;4.78;1.70;;;;;;;41.18;17.33;100921.72;5034102;28;20455;-78
2022/07/09 05:21:01;;;;;;;9.50;3.80;;;;;;;40.67;17.02;100918.75;5027642;28;20137;-78
2022/07/09 05:23:27;;;;;;;2.75;2.22;;;;;;;40.52;17.45;100912.16;5033164;28;20132;-78
2022/07/09 05:25:54;;;;;;;2.13;1.67;;;;;;;40.73;17.34;100910.06;5045146;28;20463;-76
2022/07/09 05:28:22;;;;;;;3.40;2.20;;;;;;;40.41;17.83;100925.09;5036144;28;20064;-77
2022/07/09 05:30:53;;;;;;;3.65;2.42;;;;;;;40.70;17.91;100921.19;5027264;28;20056;-78
2022/07/09 05:33:21;;;;;;;;;;;;;;;40.67;17.53;100922.53;5032305;28;20025;-77
2022/07/09 05:35:46;;;;;;;3.22;1.90;;;;;;;40.43;17.84;100927.41;5018380;28;20297;-78
2022/07/09 05:38:13;;;;;;;4.18;2.05;;;;;;;40.63;17.92;100906.63;5035135;28;20056;-77
2022/07/09 05:40:40;;;;;;;4.40;2.42;;;;;;;40.50;17.77;100921.03;5036080;28;20029;-77
2022/07/09 05:43:08;;;;;;;3.15;2.00;;;;;;;40.87;17.47;100916.63;5036215;28;20029;-77
2022/07/09 05:45:36;;;;;;;3.92;2.03;;;;;;;40.74;17.38;100915.38;5035391;28;20033;-78
2022/07/09 05:48:02;;;;;;;2.45;2.05;;;;;;;40.46;17.96;100896.94;5036838;28;20470;-79
2022/07/09 05:50:27;;;;;;;2.30;1.70;;;;;;;41.10;17.38;100912.41;5035016;28;20104;-76
2022/07/09 05:52:53;;;;;;;4.22;2.13;;;;;;;41.26;17.22;100898.09;5035717;28;20029;-77
2022/07/09 05:55:23;;;;;;;4.53;1.88;;;;;;;41.67;16.87;100891.53;5035683;28;20041;-77
2022/07/09 05:57:49;;;;;;;2.03;1.60;;;;;;;41.53;17.26;100890.97;5051026;28;20125;-77
2022/07/09 06:00:15;;;;;;;3.00;1.83;;;;;;;41.93;16.35;100885.81;5034439;28;20025;-77
2022/07/09 06:02:42;;;;;;;2.55;2.10;;;;;;;42.61;16.23;100875.53;5035674;28;20037;-78
2022/07/09 06:05:10;;;;;;;3.08;1.33;;;;;;;43.44;15.50;100878.28;5035936;28;20025;-77
2022/07/09 06:07:36;;;;;;;1.60;1.50;;;;;;;44.71;13.90;100857.19;5035646;28;20038;-77
2022/07/09 06:10:12;;;;;;;2.47;1.48;;;;;;;46.06;13.34;100850.50;5035868;28;20032;-77
2022/07/09 06:12:40;;;;;;;3.25;1.17;;;;;;;48.16;12.35;100834.13;5035064;28;20029;-77
2022/07/09 06:15:07;;;;;;;3.80;1.60;;;;;;;49.96;10.25;100839.19;5032881;28;20034;-77
2022/07/09 06:17:33;;;;;;;2.78;1.50;;;;;;;50.83;9.58;100826.41;5035026;28;20013;-78
2022/07/09 06:20:01;;;;;;;3.53;1.48;;;;;;;52.66;8.20;100817.16;5036355;28;20051;-79
2022/07/09 06:22:27;;;;;;;3.08;1.23;;;;;;;52.03;8.54;100802.44;5035375;28;20029;-78
2022/07/09 06:24:52;;;;;;;3.03;1.17;;;;;;;53.03;7.70;100809.97;5050464;28;20099;-77
2022/07/09 06:27:43;;;;;;;3.30;1.10;;;;;;;53.21;7.56;100805.22;5034647;28;20399;-77
2022/07/09 06:30:10;;;;;;;;;;;;;;;54.19;6.93;100803.13;5037816;28;20041;-79
2022/07/09 06:32:36;;;;;;;2.08;0.90;;;;;;;54.61;7.14;100795.56;5035278;28;19996;-79
2022/07/09 06:35:03;;;;;;;1.63;1.00;;;;;;;54.75;6.98;100784.63;5033815;28;20176;-79
2022/07/09 06:37:30;;;;;;;5.90;1.10;;;;;;;56.25;6.03;100792.06;5034858;28;20552;-76
2022/07/09 06:39:59;;;;;;;2.88;1.02;;;;;;;56.74;5.60;100751.75;5034897;28;20033;-78
2022/07/09 06:42:25;;;;;;;4.03;1.10;;;;;;;57.75;5.00;100780.97;5034924;28;20442;-78
2022/07/09 06:44:51;;;;;;;4.13;0.80;;;;;;;58.14;5.44;100778.16;5033604;28;20087;-77
2022/07/09 06:47:18;;;;;;;4.25;1.00;;;;;;;57.59;4.96;100763.81;5034886;28;20038;-79
2022/07/09 06:49:46;;;;;;;0.90;0.70;;;;;;;57.08;5.81;100768.41;5035077;28;20037;-78
2022/07/09 06:52:12;;;;;;;2.33;0.82;;;;;;;57.01;5.21;100763.25;5034729;28;20071;-80
2022/07/09 06:54:37;;;;;;;3.30;1.10;;;;;;;56.90;6.24;100775.06;5033287;28;20128;-76
2022/07/09 06:57:03;;;;;;;1.92;0.95;;;;;;;57.99;5.66;100762.50;5050010;28;20049;-78
2022/07/09 06:59:29;;;;;;;2.63;1.10;;;;;;;57.59;4.56;100758.44;5033883;28;20033;-79
2022/07/09 07:01:56;;;;;;;2.30;1.08;;;;;;;57.17;5.90;100760.50;5035761;28;20037;-78
2022/07/09 07:04:24;;;;;;;3.80;0.93;;;;;;;57.46;5.52;100757.31;5045134;28;20048;-79
2022/07/09 07:06:50;;;;;;;4.38;1.05;;;;;;;56.09;5.61;100755.75;5054095;28;20497;-79
2022/07/09 07:09:18;;;;;;;1.00;0.60;;;;;;;55.23;6.22;100767.63;5024965;28;20032;-79
2022/07/09 07:11:45;;;;;;;2.42;1.10;;;;;;;54.71;6.36;100764.09;5054203;28;20025;-80
2022/07/09 07:14:11;;;;;;;0.82;0.65;;;;;;;52.96;6.60;100762.81;5052842;28;20062;-79
2022/07/09 07:16:39;;;;;;;1.48;0.80;;;;;;;52.35;7.81;100761.88;5069658;28;20032;-78
2022/07/09 07:19:13;;;;;;;3.08;0.85;;;;;;;51.72;7.60;100763.06;5054174;28;20044;-77
2022/07/09 07:21:38;;;;;;;4.57;1.17;;;;;;;51.91;7.72;100766.75;5053944;28;20493;-77
2022/07/09 07:24:05;;;;;;;4.07;1.40;;;;;;;52.59;6.84;100759.41;5069706;28;20044;-78
2022/07/09 07:26:39;;;;;;;4.13;0.90;;;;;;;51.96;8.10;100752.31;5053932;28;20037;-78
2022/07/09 07:29:05;;;;;;;1.67;0.88;;;;;;;51.97;6.98;100759.88;5054228;28;20060;-80
2022/07/09 07:31:31;;;;;;;4.15;1.30;;;;;;;53.30;6.62;100755.56;5069385;28;20068;-79
2022/07/09 07:34:03;;;;;;;4.60;1.45;;;;;;;53.85;7.12;100763.97;5069644;28;20051;-76
2022/07/09 07:36:29;;;;;;;2.63;0.80;;;;;;;53.22;6.40;100751.88;5069304;28;20116;-76
2022/07/09 07:38:56;;;;;;;1.80;0.88;;;;;;;54.60;6.10;100756.63;5053833;28;20020;-76
2022/07/09 07:41:21;;;;;;;5.75;1.08;;;;;;;53.53;5.89;100740.81;5053550;28;20040;-75
2022/07/09 07:43:48;;;;;;;5.75;1.00;;;;;;;53.59;6.33;100755.22;5052367;28;20032;-75
2022/07/09 07:46:14;;;;;;;2.83;0.88;;;;;;;51.93;6.87;100739.38;5053560;28;20075;-75
2022/07/09 07:48:43;;;;;;;3.92;1.30;;;;;;;50.67;7.97;100772.53;5053692;28;20052;-75
2022/07/09 07:51:10;;;;;;;1.17;1.05;;;;;;;49.79;8.05;100776.97;5068857;28;20107;-76
2022/07/09 07:53:37;;;;;;;3.03;1.00;;;;;;;50.12;7.75;100769.50;5052412;28;20439;-77
2022/07/09 07:56:07;;;;;;;3.38;0.80;;;;;;;51.15;8.23;100746.63;5069196;28;20482;-77
2022/07/09 07:58:35;;;;;;;1.07;0.80;;;;;;;52.89;6.92;100761.38;5053525;28;20029;-77
2022/07/09 08:01:00;;;;;;;4.35;0.95;;;;;;;51.94;6.63;100746.97;5068565;28;20306;-78
2022/07/09 08:03:27;;;;;;;1.63;0.90;;;;;;;53.58;6.15;100762.84;5053760;28;20463;-83
2022/07/09 08:05:52;;;;;;;1.15;0.70;;;;;;;53.49;6.34;100753.03;5053772;28;20098;-80
2022/07/09 08:08:18;;;;;;;4.65;0.93;;;;;;;54.22;6.25;100755.00;5053763;28;20072;-80
2022/07/09 08:10:48;;;;;;;0.75;0.60;;;;;;;54.90;4.67;100753.00;5051857;28;20371;-79
2022/07/09 08:13:14;;;;;;;3.25;0.90;;;;;;;55.65;4.91;100750.69;5063879;28;20096;-81
2022/07/09 08:15:41;;;;;;;1.50;1.17;;;;;;;54.92;5.49;100752.22;5032882;28;20034;-78
2022/07/09 08:18:12;;;;;;;4.47;1.17;;;;;;;54.76;5.76;100750.25;5032303;28;20045;-77
2022/07/09 08:20:49;;;;;;;5.93;1.27;;;;;;;53.09;6.38;100753.56;5033581;28;20029;-76
2022/07/09 08:23:15;;;;;;;2.50;1.20;;;;;;;51.46;7.14;100744.25;5033574;28;20049;-75
2022/07/09 08:25:42;;;;;;;7.50;1.20;;;;;;;51.32;7.35;100754.91;5033653;28;20042;-78
2022/07/09 08:28:13;;;;;;;2.42;1.05;;;;;;;51.45;6.46;100758.69;5032103;28;20080;-74
2022/07/09 08:30:39;;;;;;;1.20;0.93;;;;;;;50.60;7.48;100771.00;5032062;28;20139;-74
2022/07/09 08:33:07;;;;;;;2.72;1.38;;;;;;;51.14;6.92;100754.22;5032443;28;20044;-74
2022/07/09 08:35:33;;;;;;;3.25;0.95;;;;;;;51.10;7.29;100748.13;5033415;28;20025;-75
2022/07/09 08:38:00;;;;;;;2.95;1.10;;;;;;;52.32;6.64;100742.88;5031970;28;20053;-74
2022/07/09 08:40:27;;;;;;;2.72;1.00;;;;;;;52.84;5.79;100732.50;5033987;28;20111;-75
2022/07/09 08:42:54;;;;;;;2.50;0.88;;;;;;;52.93;6.19;100746.09;5032083;28;20026;-78
2022/07/09 08:45:21;;;;;;;2.17;0.75;;;;;;;54.05;5.23;100736.22;5032008;28;20040;-74
2022/07/09 08:47:48;;;;;;;1.83;1.08;;;;;;;53.08;5.19;100746.72;5015466;28;20095;-74
2022/07/09 08:50:15;;;;;;;0.90;0.75;;;;;;;54.00;5.00;100740.84;5032102;28;20036;-75
2022/07/09 08:52:41;;;;;;;2.67;1.05;;;;;;;53.69;4.90;100736.72;5031944;28;20056;-77
2022/07/09 08:55:08;;;;;;;1.85;0.90;;;;;;;52.14;5.97;100715.66;5031748;28;20431;-76
2022/07/09 08:57:34;;;;;;;3.22;1.30;;;;;;;52.00;5.85;100737.06;5032770;28;20048;-74
2022/07/09 09:00:09;;;;;;;4.82;0.95;;;;;;;53.00;5.69;100734.59;5031966;28;20032;-75
2022/07/09 09:02:39;;;;;;;2.05;0.93;;;;;;;53.59;5.78;100727.75;5031826;28;20505;-74
2022/07/09 09:05:14;;;;;;;2.45;1.35;;;;;;;52.89;5.71;100730.16;5015465;28;20025;-76
2022/07/09 09:07:41;;;;;;;1.88;1.30;;;;;;;53.17;6.48;100726.03;5033193;28;20084;-75
2022/07/09 09:10:09;;;;;;;2.88;1.40;;;;;;;53.37;5.56;100717.38;5012415;28;20187;-77
2022/07/09 09:12:34;;;;;;;4.13;1.60;;;;;;;52.86;5.70;100682.97;5016045;28;20112;-76
2022/07/09 09:15:12;;;;;;;9.27;1.30;;;;;;;52.80;6.14;100707.44;5033464;28;20164;-77
2022/07/09 09:17:44;;;;;;;2.85;1.27;;;;;;;52.35;6.50;100719.28;5033441;28;20573;-77
2022/07/09 09:20:14;;;;;;;1.80;1.00;;;;;;;52.38;6.19;100714.69;5031769;28;20100;-77
2022/07/09 09:22:59;;;;;;;4.40;1.05;;;;;;;52.41;5.63;100707.78;5018500;28;20021;-76
2022/07/09 09:25:24;;;;;;;1.52;1.10;;;;;;;52.81;5.23;100703.59;5035723;28;20032;-78
2022/07/09 09:27:55;;;;;;;2.85;1.02;;;;;;;53.09;5.53;100704.81;5035219;28;20025;-78
2022/07/09 09:30:40;;;;;;;1.95;0.90;;;;;;;50.96;6.37;100704.16;5018596;28;20037;-77
2022/07/09 09:33:08;;;;;;;1.20;0.95;;;;;;;48.74;7.21;100679.59;5035603;28;20026;-78
2022/07/09 09:35:46;;;;;;;1.92;1.10;;;;;;;50.41;6.72;100708.81;5018501;28;20021;-77
2022/07/09 09:38:12;;;;;;;1.45;0.80;;;;;;;50.62;6.72;100691.34;5034556;28;20076;-76
2022/07/09 09:40:51;;;;;;;2.60;0.90;;;;;;;49.17;7.52;100659.38;5034900;28;20067;-78
2022/07/09 09:43:19;;;;;;;2.22;1.17;;;;;;;48.33;8.16;100697.44;5035992;28;20025;-76
2022/07/09 09:45:47;;;;;;;1.02;0.80;;;;;;;50.12;7.58;100698.97;5034819;28;20393;-77
2022/07/09 09:48:13;;;;;;;4.15;1.10;;;;;;;50.71;6.90;100686.75;5018119;28;20039;-77
2022/07/09 09:50:39;;;;;;;1.92;0.88;;;;;;;51.04;6.64;100684.38;5018490;28;20033;-76
2022/07/09 09:53:05;;;;;;;1.58;0.80;;;;;;;50.82;6.42;100701.16;5034592;28;20043;-78
2022/07/09 09:55:32;;;;;;;6.90;1.02;;;;;;;50.39;6.99;100666.31;5035132;28;20033;-76
2022/07/09 09:57:58;;;;;;;3.75;0.98;;;;;;;50.47;7.01;100676.22;5034581;28;20029;-77
2022/07/09 10:00:25;;;;;;;1.58;1.27;;;;;;;50.09;6.90;100676.97;5018092;28;20493;-79
2022/07/09 10:02:51;;;;;;;1.77;1.20;;;;;;;49.73;7.14;100680.72;5034768;28;20493;-78
2022/07/09 10:05:18;;;;;;;2.53;1.30;;;;;;;49.06;7.61;100672.94;5017848;28;20036;-77
2022/07/09 10:07:45;;;;;;;3.88;1.50;;;;;;;48.29;7.69;100664.16;5034383;28;20025;-77
2022/07/09 10:10:21;;;;;;;1.40;1.10;;;;;;;49.60;7.78;100673.13;5017644;28;20036;-75
2022/07/09 10:12:47;;;;;;;2.97;1.65;;;;;;;50.29;7.65;100673.16;5034573;28;20033;-77
2022/07/09 10:15:22;;;;;;;2.25;0.82;;;;;;;49.43;6.97;100668.56;5034484;28;20053;-79
2022/07/09 10:17:47;;;;;;;4.28;1.20;;;;;;;49.31;7.86;100669.25;5017631;28;20087;-77
2022/07/09 10:20:14;;;;;;;1.70;1.08;;;;;;;48.92;7.55;100669.84;5017699;28;20425;-75
2022/07/09 10:22:44;;;;;;;1.52;1.00;;;;;;;48.43;7.82;100660.47;5017712;28;20033;-75
2022/07/09 10:25:30;;;;;;;2.08;1.20;;;;;;;48.28;8.25;100658.84;5017475;28;20078;-77
2022/07/09 10:27:56;;;;;;;2.45;1.15;;;;;;;48.50;7.96;100652.22;5017439;28;20033;-76
2022/07/09 10:30:26;;;;;;;4.95;1.50;;;;;;;48.41;7.60;100660.44;5033805;28;20037;-77
2022/07/09 10:33:17;;;;;;;2.47;1.50;;;;;;;47.40;8.61;100645.19;5033371;28;20382;-77
2022/07/09 10:35:49;;;;;;;2.17;1.10;;;;;;;46.89;8.60;100649.81;5017234;28;20040;-75
2022/07/09 10:38:17;;;;;;;1.52;1.20;;;;;;;46.96;7.85;100647.66;5033468;28;20049;-78
2022/07/09 10:40:44;;;;;;;2.35;1.08;;;;;;;46.65;8.14;100650.25;5033943;28;20026;-78
2022/07/09 10:43:12;;;;;;;2.50;1.08;;;;;;;46.48;8.38;100648.47;5033602;28;20399;-80
2022/07/09 10:45:43;;;;;;;5.85;1.20;;;;;;;46.56;9.38;100651.63;5017014;28;20037;-78
2022/07/09 10:48:14;;;;;;;1.63;1.08;;;;;;;46.58;7.65;100651.66;5035916;28;20033;-82
2022/07/09 10:50:43;;;;;;;1.33;1.20;;;;;;;45.52;8.62;100651.34;5020184;28;20065;-82
2022/07/09 10:53:11;;;;;;;1.38;1.27;;;;;;;45.64;9.04;100642.53;5017380;28;20033;-77
2022/07/09 10:55:48;;;;;;;2.17;1.17;;;;;;;45.92;9.64;100652.09;5033603;28;20029;-77
2022/07/09 10:58:26;;;;;;;2.90;1.33;;;;;;;45.69;9.83;100655.44;5032964;28;20532;-76
2022/07/09 11:01:09;;;;;;;1.27;1.17;;;;;;;45.91;9.75;100650.59;5034574;28;20038;-77
2022/07/09 11:03:35;;;;;;;1.85;1.60;;;;;;;45.20;10.07;100647.72;5032946;28;20475;-77
2022/07/09 11:06:01;;;;;;;2.78;1.30;;;;;;;44.87;9.93;100649.25;5034467;28;20025;-79
2022/07/09 11:08:30;;;;;;;1.45;1.35;;;;;;;45.45;10.07;100652.72;5033465;28;20025;-76
2022/07/09 11:10:56;;;;;;;2.10;1.45;;;;;;;45.22;9.82;100650.75;5034340;28;20064;-79
2022/07/09 11:13:24;;;;;;;1.70;1.52;;;;;;;45.30;10.06;100647.88;5034331;28;20029;-78
2022/07/09 11:15:51;;;;;;;3.05;1.55;;;;;;;45.53;9.84;100619.75;5033106;28;20068;-81
2022/07/09 11:18:17;;;;;;;3.33;1.40;;;;;;;45.41;9.72;100647.41;5033148;28;20029;-83
2022/07/09 11:20:45;;;;;;;2.75;1.50;;;;;;;45.61;10.32;100631.19;5033651;28;20034;-79
2022/07/09 11:23:16;;;;;;;2.50;1.38;;;;;;;45.71;10.22;100641.16;5000300;28;20108;-78
2022/07/09 11:25:56;;;;;;;2.90;1.50;;;;;;;44.11;11.51;100625.66;5032928;28;20037;-78
2022/07/09 11:28:26;;;;;;;3.17;1.45;;;;;;;45.21;10.19;100653.00;5034228;28;20029;-80
2022/07/09 11:30:59;;;;;;;2.42;1.58;;;;;;;45.91;10.02;100644.56;5016628;28;20026;-79